Drummond Island, MI

11:11 PM EST on February 13, 2016 (GMT -0500)
Drummond Island | | Change Station
CLOSE
Current Station
Airport
Location: Drummond Island,
Elevation: 669 ft
Nearby Weather Stations
Active Advisory: Wind Chill Advisory

Elev 669 ft 46.01 °N, 83.74 °W | Updated 16 minutes ago

Overcast
Overcast
1 °F
Feels Like 1 °F
N
0
Wind Variable Wind from North

Today
High -- | Low -- °F
--% Chance of Precip.
Yesterday
High -- | Low -- °F
Precip. -- in
Pressure 30.42 in
Visibility 10.0 miles
Clouds Overcast 3500 ft
Dew Point -6 °F
Humidity 72%
Rainfall 0.00 in
Snow Depth Not available.
7:41 AM 5:57 PM
Waxing Crescent, 37% visible
METAR KDRM 140355Z AUTO 00000KT 10SM OVC035 M17/M21 A3042 RMK AO2 T11701210
Pressure 30.42 in
Visibility 10.0 miles
Clouds Overcast 3500 ft
Dew Point -6 °F
Humidity 72%
Rainfall 0.00 in
Snow Depth Not available.
7:41 AM 5:57 PM
Waxing Crescent, 37% visible
METAR KDRM 140355Z AUTO 00000KT 10SM OVC035 M17/M21 A3042 RMK AO2 T11701210

10-Day Weather Forecast

Almanac

Astronomy

Feb. 13, 2016 Rise Set
Actual Time
Civil Twilight
Nautical Twilight
Astronomical Twilight
Moon
Length of Visible Light
Length of Day
Tomorrow will be .
, % of the Moon is Illuminated

Today's Extremes

State Highs State Lows

Community

WunderPhotos

Upload Photos

1,892,743 photos uploaded!

WunderBlog® & News

Nearby

Air Quality

  Air Quality AQ Index Pollutant
Not available.

Snow Depth

Station Depth Elevation

Earthquake Activity

City Distance Mag. Time & Date
Minimum magnitude displayed is 2.5.

Coastal Water Temperatures

Place Temperature

Stations

Nearby Weather Stations

Station Location Temp. Windchill Dew Point Humidity Wind Precip. Elev Updated Type
                   

Watches & Warnings

Wind Chill Advisory
Issued: 11:09 PM EST Feb. 13, 2016 – National Weather Service

... Wind Chill Advisory remains in effect until 10 am EST Sunday...

* wind chill values of 20 to 30 below zero will be felt into the
morning.

* It only takes 20 to 30 minutes of unprotected exposure to
these temperatures to get frostbite.

Precautionary/preparedness actions...

A Wind Chill Advisory means that very cold air and strong winds
will combine to generate low wind chills. This will result in
frost bite and lead to hypothermia if precautions are not taken.
If you must venture outdoors... make sure you wear a hat and
gloves.